Time;durP1;ratioP1;P1;durP2;ratioP2;P2;SDS_P1;SDS_P2;PMS_P1;PMS_P2;Temp;Humidity;BMP_temperature;BMP_pressure;BME280_temperature;BME280_humidity;BME280_pressure;Samples;Min_cycle;Max_cycle;Signal;HPM_P1;HPM_P2
2021/07/18 00:00:11;;;;;;;4.90;4.50;;;19.80;99.90;;;;;;4840301;29;20462;-77
2021/07/18 00:02:37;;;;;;;5.67;5.07;;;19.80;99.90;;;;;;4851632;29;20426;-77
2021/07/18 00:05:03;;;;;;;4.40;4.00;;;19.80;99.90;;;;;;4854209;29;21207;-78
2021/07/18 00:07:29;;;;;;;4.45;4.05;;;19.70;99.90;;;;;;4837944;29;20949;-77
2021/07/18 00:09:55;;;;;;;4.30;4.00;;;19.70;99.90;;;;;;4837541;29;20506;-77
2021/07/18 00:12:20;;;;;;;4.20;3.90;;;19.70;99.90;;;;;;4854328;29;20415;-78
2021/07/18 00:14:46;;;;;;;4.57;3.90;;;19.70;99.90;;;;;;4839916;29;20418;-77
2021/07/18 00:17:12;;;;;;;4.60;4.20;;;19.60;99.90;;;;;;4837629;29;20488;-77
2021/07/18 00:19:37;;;;;;;3.80;3.50;;;19.60;99.90;;;;;;4839355;29;20403;-77
2021/07/18 00:22:04;;;;;;;4.10;3.80;;;19.60;99.90;;;;;;4823506;29;20422;-77
2021/07/18 00:24:30;;;;;;;3.15;2.90;;;19.50;99.90;;;;;;4838785;29;20412;-77
2021/07/18 00:26:56;;;;;;;3.00;2.80;;;19.60;99.90;;;;;;4854049;29;20852;-77
2021/07/18 00:29:21;;;;;;;5.20;3.53;;;19.50;99.90;;;;;;4852213;29;20419;-77
2021/07/18 00:31:47;;;;;;;4.25;3.22;;;19.50;99.90;;;;;;4838026;29;20454;-77
2021/07/18 00:34:13;;;;;;;2.80;2.60;;;19.40;99.90;;;;;;4841008;29;20494;-77
2021/07/18 00:36:38;;;;;;;2.90;2.70;;;19.40;99.90;;;;;;4839558;29;20429;-77
2021/07/18 00:39:04;;;;;;;3.13;2.83;;;19.30;99.90;;;;;;4854208;29;20438;-77
2021/07/18 00:41:30;;;;;;;3.50;3.20;;;19.30;99.90;;;;;;4839382;29;20974;-77
2021/07/18 00:43:55;;;;;;;2.90;2.70;;;19.20;99.90;;;;;;4840964;29;20417;-78
2021/07/18 00:46:21;;;;;;;3.07;2.57;;;19.10;99.90;;;;;;4840520;29;20491;-76
2021/07/18 00:48:46;;;;;;;2.70;2.50;;;19.00;99.90;;;;;;4874748;29;20866;-77
2021/07/18 00:51:12;;;;;;;2.45;2.25;;;19.00;99.90;;;;;;4896331;29;20796;-77
2021/07/18 00:53:38;;;;;;;2.77;2.20;;;19.00;99.90;;;;;;4845692;29;20498;-77
2021/07/18 00:56:03;;;;;;;3.67;2.47;;;19.00;99.90;;;;;;4859775;29;20415;-78
2021/07/18 00:58:30;;;;;;;2.58;2.38;;;19.00;99.90;;;;;;4880106;29;20494;-77
2021/07/18 01:00:56;;;;;;;1.95;1.73;;;18.90;99.90;;;;;;4843185;29;20501;-77
2021/07/18 01:03:22;;;;;;;3.30;1.98;;;18.90;99.90;;;;;;4845447;29;20421;-78
2021/07/18 01:05:48;;;;;;;2.30;2.10;;;18.90;99.90;;;;;;4845559;29;20434;-77
2021/07/18 01:08:15;;;;;;;4.40;2.40;;;18.80;99.90;;;;;;4859227;29;20427;-77
2021/07/18 01:10:41;;;;;;;2.03;1.92;;;18.70;99.90;;;;;;4860164;29;20402;-78
2021/07/18 01:13:06;;;;;;;3.23;2.13;;;18.70;99.90;;;;;;4896298;29;20418;-77
2021/07/18 01:15:32;;;;;;;2.22;2.03;;;18.70;99.90;;;;;;4859036;29;20482;-77
2021/07/18 01:17:58;;;;;;;14.30;2.13;;;18.60;99.90;;;;;;4875686;29;20456;-77
2021/07/18 01:20:23;;;;;;;1.63;1.53;;;18.60;99.90;;;;;;4875553;29;20407;-77
2021/07/18 01:22:49;;;;;;;2.00;1.80;;;18.60;99.90;;;;;;4860602;29;20419;-78
2021/07/18 01:25:15;;;;;;;1.63;1.53;;;18.50;99.90;;;;;;4845150;29;20406;-78
2021/07/18 01:27:40;;;;;;;1.90;1.80;;;18.60;99.90;;;;;;4844615;29;20415;-77
2021/07/18 01:30:07;;;;;;;2.42;1.70;;;18.50;99.90;;;;;;4890058;29;20886;-77
2021/07/18 01:32:33;;;;;;;1.60;1.50;;;18.50;99.90;;;;;;4844715;29;20413;-77
2021/07/18 01:34:59;;;;;;;1.58;1.48;;;18.50;99.90;;;;;;4858562;29;20466;-77
2021/07/18 01:37:25;;;;;;;2.05;1.67;;;18.40;99.90;;;;;;4843644;29;20426;-77
2021/07/18 01:39:50;;;;;;;1.48;1.38;;;18.40;99.90;;;;;;4843706;29;20447;-77
2021/07/18 01:42:16;;;;;;;2.10;1.57;;;18.40;99.90;;;;;;4859598;29;20414;-78
2021/07/18 01:44:42;;;;;;;1.70;1.60;;;18.40;99.90;;;;;;4874368;29;20490;-78
2021/07/18 01:47:08;;;;;;;1.73;1.43;;;18.40;99.90;;;;;;4843764;29;20430;-78
2021/07/18 01:49:33;;;;;;;1.90;1.58;;;18.30;99.90;;;;;;4829559;29;20406;-77
2021/07/18 01:51:59;;;;;;;1.63;1.37;;;18.30;99.90;;;;;;4859311;29;21638;-77
2021/07/18 01:54:25;;;;;;;1.38;1.27;;;18.30;99.90;;;;;;4878711;29;20451;-77
2021/07/18 01:56:50;;;;;;;1.40;1.30;;;18.30;99.90;;;;;;4859572;29;20452;-77
2021/07/18 01:59:18;;;;;;;1.58;1.48;;;18.30;99.90;;;;;;4859199;29;20505;-77
2021/07/18 02:01:43;;;;;;;1.50;1.40;;;18.20;99.90;;;;;;4859147;29;20470;-77
2021/07/18 02:04:11;;;;;;;1.55;1.45;;;18.20;99.90;;;;;;4843479;29;20431;-77
2021/07/18 02:06:37;;;;;;;1.58;1.48;;;18.20;99.90;;;;;;4844787;29;20426;-77
2021/07/18 02:09:03;;;;;;;1.38;1.27;;;18.20;99.90;;;;;;4859174;29;20403;-77
2021/07/18 02:11:29;;;;;;;1.50;1.40;;;18.20;99.90;;;;;;4844290;29;20403;-77
2021/07/18 02:13:56;;;;;;;2.20;1.70;;;18.10;99.90;;;;;;4859008;29;20419;-77
2021/07/18 02:16:22;;;;;;;1.47;1.37;;;18.20;99.90;;;;;;4844169;29;20427;-78
2021/07/18 02:18:48;;;;;;;1.38;1.27;;;18.10;99.90;;;;;;4843915;29;20467;-77
2021/07/18 02:21:15;;;;;;;3.53;1.73;;;18.10;99.90;;;;;;4844800;29;20402;-78
2021/07/18 02:23:40;;;;;;;2.80;1.60;;;18.00;99.90;;;;;;4844408;29;20411;-78
2021/07/18 02:26:06;;;;;;;3.60;2.00;;;18.00;99.90;;;;;;4859749;29;20425;-78
2021/07/18 02:28:32;;;;;;;2.10;1.75;;;18.10;99.90;;;;;;4828253;29;20434;-77
2021/07/18 02:30:57;;;;;;;1.50;1.40;;;18.00;99.90;;;;;;4858611;29;20407;-77
2021/07/18 02:33:23;;;;;;;1.60;1.50;;;18.00;99.90;;;;;;4844239;29;20417;-77
2021/07/18 02:35:49;;;;;;;2.00;1.58;;;18.00;99.90;;;;;;4844328;29;20914;-77
2021/07/18 02:38:15;;;;;;;2.60;1.50;;;17.90;99.90;;;;;;4858756;29;20478;-78
2021/07/18 02:40:40;;;;;;;2.40;1.73;;;17.80;99.90;;;;;;4844157;29;20411;-76
2021/07/18 02:43:06;;;;;;;1.23;1.13;;;17.80;99.90;;;;;;4845174;29;20447;-77
2021/07/18 02:45:32;;;;;;;1.60;1.30;;;17.90;99.90;;;;;;4858239;29;20431;-77
2021/07/18 02:47:58;;;;;;;1.50;1.40;;;17.90;99.90;;;;;;4858604;29;20407;-77
2021/07/18 02:50:25;;;;;;;1.30;1.25;;;17.80;99.90;;;;;;4861066;29;20705;-78
2021/07/18 02:52:51;;;;;;;1.30;1.20;;;17.80;99.90;;;;;;4860616;29;20460;-77
2021/07/18 02:55:17;;;;;;;1.27;1.25;;;17.80;99.90;;;;;;4860370;29;20791;-77
2021/07/18 02:57:43;;;;;;;1.87;1.47;;;17.80;99.90;;;;;;4860344;29;20458;-77
2021/07/18 03:00:09;;;;;;;1.63;1.42;;;17.80;99.90;;;;;;4860883;29;20411;-78
2021/07/18 03:02:35;;;;;;;1.25;1.20;;;17.70;99.90;;;;;;4843954;29;20430;-77
2021/07/18 03:05:01;;;;;;;1.73;1.60;;;17.70;99.90;;;;;;4861153;29;20458;-76
2021/07/18 03:07:27;;;;;;;1.70;1.60;;;17.70;99.90;;;;;;4844214;29;20419;-77
2021/07/18 03:09:53;;;;;;;1.80;1.70;;;17.60;99.90;;;;;;4828589;29;20634;-78
2021/07/18 03:12:18;;;;;;;2.87;1.60;;;17.60;99.90;;;;;;4859239;29;20450;-78
2021/07/18 03:14:44;;;;;;;1.45;1.30;;;17.60;99.90;;;;;;4858230;29;20427;-77
2021/07/18 03:17:10;;;;;;;2.30;1.80;;;17.50;99.90;;;;;;4857657;29;20506;-78
2021/07/18 03:19:35;;;;;;;1.95;1.75;;;17.50;99.90;;;;;;4844202;29;20937;-77
2021/07/18 03:22:02;;;;;;;1.63;1.53;;;17.50;99.90;;;;;;4879743;29;20567;-78
2021/07/18 03:24:28;;;;;;;1.50;1.40;;;17.50;99.90;;;;;;4859595;29;20435;-77
2021/07/18 03:26:53;;;;;;;2.33;1.33;;;17.50;99.90;;;;;;4829080;29;20509;-77
2021/07/18 03:29:19;;;;;;;1.63;1.53;;;17.50;99.90;;;;;;4844533;29;20403;-77
2021/07/18 03:31:44;;;;;;;1.50;1.40;;;17.50;99.90;;;;;;4844568;29;20423;-77
2021/07/18 03:34:10;;;;;;;1.58;1.48;;;17.50;99.90;;;;;;4844672;29;20410;-78
2021/07/18 03:36:37;;;;;;;1.40;1.30;;;17.50;99.90;;;;;;4845416;29;20415;-80
2021/07/18 03:39:03;;;;;;;1.55;1.45;;;17.40;99.90;;;;;;4857040;29;20411;-79
2021/07/18 03:41:29;;;;;;;1.53;1.43;;;17.40;99.90;;;;;;4841813;29;20419;-78
2021/07/18 03:43:54;;;;;;;1.75;1.65;;;17.40;99.90;;;;;;4828116;29;20411;-78
2021/07/18 03:46:20;;;;;;;1.90;1.80;;;17.40;99.90;;;;;;4856621;29;20415;-78
2021/07/18 03:48:45;;;;;;;1.50;1.40;;;17.40;99.90;;;;;;4841805;29;20456;-79
2021/07/18 03:51:11;;;;;;;1.65;1.55;;;17.40;99.90;;;;;;4858111;29;20899;-79
2021/07/18 03:53:37;;;;;;;2.50;2.00;;;17.40;99.90;;;;;;4859035;29;20479;-78
2021/07/18 03:56:03;;;;;;;1.90;1.80;;;17.40;99.90;;;;;;4843375;29;20490;-78
2021/07/18 03:58:28;;;;;;;1.60;1.50;;;17.40;99.90;;;;;;4844620;29;20415;-77
2021/07/18 04:00:54;;;;;;;1.83;1.63;;;17.40;99.90;;;;;;4862767;29;20423;-78
2021/07/18 04:03:20;;;;;;;2.07;1.73;;;17.50;99.90;;;;;;4860107;29;20515;-78
2021/07/18 04:05:45;;;;;;;5.00;1.80;;;17.50;99.90;;;;;;4858982;29;20427;-78
2021/07/18 04:08:11;;;;;;;2.15;1.67;;;17.50;99.90;;;;;;4859840;29;20427;-77
2021/07/18 04:10:37;;;;;;;1.70;1.60;;;17.50;99.90;;;;;;4858418;29;20502;-77
2021/07/18 04:13:02;;;;;;;2.10;1.75;;;17.50;99.90;;;;;;4858447;29;20408;-78
2021/07/18 04:15:29;;;;;;;1.60;1.50;;;17.60;99.90;;;;;;4844450;29;20891;-77
2021/07/18 04:17:54;;;;;;;1.80;1.70;;;17.60;99.90;;;;;;4843944;29;20478;-78
2021/07/18 04:20:20;;;;;;;1.83;1.73;;;17.70;99.90;;;;;;4845474;29;20416;-78
2021/07/18 04:22:46;;;;;;;1.60;1.50;;;17.70;99.90;;;;;;4844285;29;20403;-78
2021/07/18 04:25:11;;;;;;;1.50;1.40;;;17.80;99.90;;;;;;4843695;29;20411;-78
2021/07/18 04:27:37;;;;;;;1.70;1.60;;;17.90;99.90;;;;;;4844894;29;20415;-78
2021/07/18 04:30:06;;;;;;;2.77;1.90;;;17.90;99.90;;;;;;4845552;29;20511;-78
2021/07/18 04:32:32;;;;;;;1.58;1.48;;;17.90;99.90;;;;;;4844414;29;20783;-78
2021/07/18 04:34:58;;;;;;;1.90;1.60;;;18.00;99.90;;;;;;4858605;29;20411;-78
2021/07/18 04:37:23;;;;;;;1.50;1.40;;;18.10;99.90;;;;;;4844583;29;20407;-76
2021/07/18 04:39:49;;;;;;;1.67;1.57;;;18.10;99.90;;;;;;4828059;29;20458;-77
2021/07/18 04:42:15;;;;;;;1.70;1.60;;;18.20;99.90;;;;;;4875493;29;20403;-78
2021/07/18 04:44:40;;;;;;;2.17;1.57;;;18.20;99.90;;;;;;4843787;29;20407;-78
2021/07/18 04:47:06;;;;;;;1.83;1.73;;;18.30;99.90;;;;;;4858990;29;20946;-77
2021/07/18 04:49:32;;;;;;;1.40;1.30;;;18.40;99.90;;;;;;4857190;29;20407;-78
2021/07/18 04:51:57;;;;;;;1.70;1.60;;;18.60;99.90;;;;;;4829679;29;21184;-78
2021/07/18 04:54:23;;;;;;;1.80;1.65;;;18.50;99.90;;;;;;4859326;29;20410;-78
2021/07/18 04:56:49;;;;;;;1.73;1.63;;;18.60;99.90;;;;;;4857855;29;20412;-78
2021/07/18 04:59:14;;;;;;;1.50;1.40;;;18.70;99.90;;;;;;4894676;29;20473;-78
2021/07/18 05:01:40;;;;;;;2.45;1.60;;;18.70;99.90;;;;;;4893170;29;20421;-78
2021/07/18 05:04:05;;;;;;;2.42;1.67;;;18.80;99.90;;;;;;4880006;29;20415;-77
2021/07/18 05:06:32;;;;;;;1.67;1.57;;;18.90;99.90;;;;;;4842849;29;20961;-78
2021/07/18 05:08:57;;;;;;;2.05;1.90;;;19.00;99.90;;;;;;4844864;29;20458;-77
2021/07/18 05:11:23;;;;;;;2.60;1.97;;;19.00;99.90;;;;;;4873465;29;20438;-80
2021/07/18 05:13:52;;;;;;;1.75;1.63;;;19.10;99.90;;;;;;4829233;29;20442;-77
2021/07/18 05:16:21;;;;;;;1.70;1.60;;;19.10;99.90;;;;;;4842911;29;20411;-78
2021/07/18 05:18:46;;;;;;;1.70;1.60;;;19.30;99.90;;;;;;4844771;29;20422;-78
2021/07/18 05:21:12;;;;;;;1.60;1.50;;;19.30;99.90;;;;;;4844817;29;20407;-78
2021/07/18 05:23:38;;;;;;;2.03;1.83;;;19.30;99.90;;;;;;4874166;29;20409;-77
2021/07/18 05:26:03;;;;;;;4.80;1.60;;;19.40;99.90;;;;;;4841901;29;20408;-78
2021/07/18 05:28:29;;;;;;;1.30;1.30;;;19.50;99.90;;;;;;4858634;29;20422;-78
2021/07/18 05:30:55;;;;;;;1.65;1.55;;;19.50;99.90;;;;;;4858060;29;20423;-78
2021/07/18 05:33:21;;;;;;;1.45;1.30;;;19.70;99.90;;;;;;4842916;29;20450;-78
2021/07/18 05:35:46;;;;;;;1.63;1.52;;;19.80;99.90;;;;;;4858530;29;20467;-78
2021/07/18 05:38:12;;;;;;;1.88;1.70;;;20.00;99.90;;;;;;4860037;29;20418;-77
2021/07/18 05:40:37;;;;;;;1.63;1.53;;;20.10;99.90;;;;;;4847107;29;20410;-77
2021/07/18 05:43:03;;;;;;;2.92;1.60;;;20.10;99.90;;;;;;4879152;29;20407;-78
2021/07/18 05:45:29;;;;;;;1.67;1.40;;;20.30;99.90;;;;;;4862346;29;20446;-78
2021/07/18 05:47:54;;;;;;;1.80;1.70;;;20.40;99.90;;;;;;4877119;29;20930;-78
2021/07/18 05:50:20;;;;;;;1.80;1.63;;;20.50;99.90;;;;;;4876734;29;20590;-78
2021/07/18 05:52:46;;;;;;;1.75;1.65;;;20.60;99.90;;;;;;4844992;29;20434;-77
2021/07/18 05:55:11;;;;;;;1.73;1.63;;;20.70;99.90;;;;;;4897718;29;20414;-77
2021/07/18 05:57:37;;;;;;;1.80;1.70;;;20.70;99.90;;;;;;4859003;29;20406;-79
2021/07/18 06:00:07;;;;;;;1.85;1.60;;;20.80;99.90;;;;;;4829842;29;20763;-78
2021/07/18 06:02:35;;;;;;;2.05;1.50;;;20.90;99.90;;;;;;4876304;29;20411;-78
2021/07/18 06:05:01;;;;;;;1.60;1.50;;;21.00;99.90;;;;;;4844237;29;20415;-79
2021/07/18 06:07:27;;;;;;;2.30;1.50;;;21.10;99.90;;;;;;4859851;29;20426;-79
2021/07/18 06:09:52;;;;;;;1.70;1.60;;;21.30;99.90;;;;;;4829602;29;20411;-78
2021/07/18 06:12:18;;;;;;;1.48;1.38;;;21.30;99.90;;;;;;4860541;29;20454;-77
2021/07/18 06:14:44;;;;;;;1.70;1.60;;;21.30;99.90;;;;;;4845341;29;20411;-79
2021/07/18 06:17:12;;;;;;;1.80;1.60;;;21.50;99.90;;;;;;4859670;29;20425;-78
2021/07/18 06:19:39;;;;;;;2.97;1.90;;;21.50;99.90;;;;;;4845618;29;20778;-78
2021/07/18 06:22:05;;;;;;;1.55;1.45;;;21.60;99.90;;;;;;4875613;29;20421;-77
2021/07/18 06:24:30;;;;;;;1.60;1.50;;;21.80;99.90;;;;;;4846160;29;20407;-78
2021/07/18 06:26:56;;;;;;;2.17;1.48;;;22.00;99.90;;;;;;4883467;29;20499;-78
2021/07/18 06:29:22;;;;;;;1.83;1.60;;;22.00;99.90;;;;;;4901976;28;20419;-78
2021/07/18 06:31:47;;;;;;;1.77;1.67;;;22.20;99.90;;;;;;4866707;29;20762;-78
2021/07/18 06:34:13;;;;;;;1.65;1.50;;;22.20;99.90;;;;;;4879249;29;20411;-78
2021/07/18 06:36:38;;;;;;;1.73;1.60;;;22.30;99.90;;;;;;4831884;29;20417;-77
2021/07/18 06:39:04;;;;;;;1.50;1.40;;;22.30;99.90;;;;;;4844995;29;20446;-78
2021/07/18 06:41:30;;;;;;;1.37;1.37;;;22.50;99.90;;;;;;4843367;29;20422;-77
2021/07/18 06:43:55;;;;;;;1.50;1.40;;;22.60;99.90;;;;;;4852396;29;20404;-78
2021/07/18 06:46:21;;;;;;;1.60;1.50;;;22.90;99.90;;;;;;4858675;29;20446;-78
2021/07/18 06:48:47;;;;;;;1.30;1.20;;;22.90;99.90;;;;;;4845702;29;20411;-77
2021/07/18 06:51:13;;;;;;;1.60;1.50;;;22.90;99.90;;;;;;4844549;29;20414;-78
2021/07/18 06:53:38;;;;;;;4.73;1.70;;;23.00;99.90;;;;;;4858761;29;20433;-78
2021/07/18 06:56:04;;;;;;;2.57;1.60;;;23.20;99.90;;;;;;4844055;29;20421;-78
2021/07/18 06:58:30;;;;;;;3.60;1.50;;;23.30;99.90;;;;;;4845121;29;20494;-78
2021/07/18 07:00:55;;;;;;;1.40;1.30;;;23.30;99.90;;;;;;4858346;29;20774;-78
2021/07/18 07:03:22;;;;;;;1.40;1.30;;;23.20;99.90;;;;;;4844839;29;20510;-78
2021/07/18 07:05:47;;;;;;;1.53;1.43;;;23.40;99.90;;;;;;4859495;29;20571;-78
2021/07/18 07:08:13;;;;;;;1.23;1.15;;;23.60;99.90;;;;;;4843626;29;20482;-78
2021/07/18 07:10:40;;;;;;;1.73;1.50;;;23.80;99.90;;;;;;4859795;29;20410;-78
2021/07/18 07:13:06;;;;;;;3.40;1.65;;;23.90;99.90;;;;;;4845200;29;20415;-78
2021/07/18 07:15:32;;;;;;;1.60;1.50;;;24.10;99.90;;;;;;4844531;29;20402;-78
2021/07/18 07:17:57;;;;;;;1.45;1.30;;;24.30;99.90;;;;;;4857719;29;20415;-78
2021/07/18 07:20:23;;;;;;;1.50;1.40;;;24.70;99.90;;;;;;4826969;29;20406;-78
2021/07/18 07:22:49;;;;;;;1.40;1.30;;;24.80;99.90;;;;;;4844640;29;20418;-78
2021/07/18 07:25:15;;;;;;;2.03;1.40;;;24.80;99.90;;;;;;4844747;29;20439;-77
2021/07/18 07:27:41;;;;;;;2.33;1.50;;;24.90;99.90;;;;;;4861144;29;20469;-78
2021/07/18 07:30:07;;;;;;;1.73;1.48;;;25.00;99.90;;;;;;4858964;29;20419;-78
2021/07/18 07:32:33;;;;;;;1.90;1.30;;;25.00;99.90;;;;;;4895124;29;20415;-77
2021/07/18 07:34:59;;;;;;;0.93;0.93;;;25.00;99.90;;;;;;4846093;29;20411;-77
2021/07/18 07:37:24;;;;;;;1.30;1.20;;;25.30;99.90;;;;;;4843667;29;20422;-78
2021/07/18 07:39:53;;;;;;;1.38;1.10;;;25.60;99.90;;;;;;4861245;29;20405;-77
2021/07/18 07:42:19;;;;;;;3.30;1.50;;;25.90;99.90;;;;;;4846428;29;20426;-78
2021/07/18 07:44:45;;;;;;;1.25;1.17;;;25.80;99.90;;;;;;4845397;29;20423;-77
2021/07/18 07:47:11;;;;;;;1.00;1.00;;;25.80;99.90;;;;;;4858452;29;20453;-79
2021/07/18 07:49:36;;;;;;;1.15;1.05;;;26.00;99.90;;;;;;4844267;29;20410;-78
2021/07/18 07:52:02;;;;;;;1.40;1.30;;;26.30;99.90;;;;;;4875031;29;20934;-78
2021/07/18 07:54:28;;;;;;;1.70;1.40;;;26.40;99.90;;;;;;4861043;29;20415;-78
2021/07/18 07:56:54;;;;;;;1.15;1.15;;;26.50;99.90;;;;;;4859156;29;20468;-78
2021/07/18 07:59:19;;;;;;;1.20;1.13;;;26.80;99.90;;;;;;4859282;29;20411;-78
2021/07/18 08:01:45;;;;;;;1.07;1.07;;;26.60;99.90;;;;;;4858669;29;20415;-78
2021/07/18 08:04:11;;;;;;;1.40;1.30;;;26.50;99.90;;;;;;4877762;29;21049;-77
2021/07/18 08:06:36;;;;;;;1.45;1.30;;;26.50;99.90;;;;;;4892084;29;20422;-78
2021/07/18 08:09:02;;;;;;;1.60;1.50;;;26.50;99.90;;;;;;4857503;29;20958;-79
2021/07/18 08:11:28;;;;;;;1.40;1.30;;;26.60;99.90;;;;;;4845575;29;20790;-77
2021/07/18 08:13:53;;;;;;;1.23;1.07;;;26.50;99.90;;;;;;4859157;29;20456;-77
2021/07/18 08:16:19;;;;;;;2.30;1.58;;;26.70;99.90;;;;;;4844984;29;20402;-77
2021/07/18 08:18:45;;;;;;;1.67;1.27;;;27.00;99.90;;;;;;4860851;29;20423;-77
2021/07/18 08:21:10;;;;;;;1.20;1.10;;;27.30;99.90;;;;;;4845862;29;20419;-78
2021/07/18 08:23:36;;;;;;;1.73;1.37;;;27.30;99.90;;;;;;4857272;29;20419;-77
2021/07/18 08:26:01;;;;;;;1.30;1.20;;;27.30;99.90;;;;;;4858448;29;20431;-78
2021/07/18 08:28:27;;;;;;;1.73;1.30;;;27.50;99.90;;;;;;4858339;29;20415;-78
2021/07/18 08:30:53;;;;;;;1.67;1.50;;;27.50;99.90;;;;;;4843172;29;20427;-78
2021/07/18 08:33:19;;;;;;;1.40;1.20;;;27.70;99.90;;;;;;4861073;29;20407;-77
2021/07/18 08:35:44;;;;;;;1.80;1.30;;;27.90;99.90;;;;;;4842688;29;20475;-78
2021/07/18 08:38:10;;;;;;;1.15;1.10;;;27.90;99.90;;;;;;4828426;29;20438;-79
2021/07/18 08:40:37;;;;;;;1.10;1.05;;;27.70;99.90;;;;;;4856895;29;20415;-79
2021/07/18 08:43:03;;;;;;;1.10;1.00;;;27.60;99.90;;;;;;4842074;29;20446;-79
2021/07/18 08:45:28;;;;;;;3.22;1.50;;;27.80;99.90;;;;;;4842568;29;20783;-78
2021/07/18 08:47:54;;;;;;;1.60;1.43;;;27.90;99.90;;;;;;4858521;29;20406;-79
2021/07/18 08:50:20;;;;;;;1.00;1.00;;;28.10;99.90;;;;;;4873080;29;20981;-78
2021/07/18 08:52:54;;;;;;;1.03;1.03;;;28.40;99.90;;;;;;4841579;29;20990;-79
2021/07/18 08:55:23;;;;;;;1.07;1.07;;;28.50;99.90;;;;;;4843832;29;20407;-78
2021/07/18 08:57:49;;;;;;;0.90;0.90;;;28.50;99.90;;;;;;4841270;29;20534;-79
2021/07/18 09:00:15;;;;;;;1.40;1.27;;;28.80;99.90;;;;;;4842527;29;20510;-80
2021/07/18 09:02:41;;;;;;;0.90;0.90;;;28.70;99.90;;;;;;4825909;29;20494;-80
2021/07/18 09:05:08;;;;;;;1.00;0.90;;;29.00;99.90;;;;;;4875294;29;20418;-80
2021/07/18 09:07:46;;;;;;;1.00;1.00;;;29.30;99.90;;;;;;4892016;29;20427;-80
2021/07/18 09:10:12;;;;;;;2.65;1.35;;;29.30;99.90;;;;;;4886830;29;20417;-80
2021/07/18 09:12:38;;;;;;;1.05;1.05;;;29.20;99.90;;;;;;4833808;29;20914;-80
2021/07/18 09:15:04;;;;;;;1.00;0.90;;;29.60;99.90;;;;;;4869160;29;20415;-79
2021/07/18 09:17:34;;;;;;;1.27;1.17;;;29.80;99.90;;;;;;4863200;29;20418;-80
2021/07/18 09:20:11;;;;;;;1.23;1.13;;;29.60;99.90;;;;;;4859983;29;20990;-80
2021/07/18 09:22:37;;;;;;;1.03;0.97;;;29.70;99.90;;;;;;4868643;29;20417;-80
2021/07/18 09:25:03;;;;;;;1.15;1.05;;;29.50;99.90;;;;;;4828713;29;20429;-80
2021/07/18 09:27:35;;;;;;;1.15;1.08;;;29.70;99.90;;;;;;4845936;29;20438;-80
2021/07/18 09:30:10;;;;;;;1.00;1.00;;;29.50;99.90;;;;;;4848593;29;20426;-81
2021/07/18 09:32:40;;;;;;;1.27;1.00;;;29.60;99.90;;;;;;4881358;29;20501;-81
2021/07/18 09:35:08;;;;;;;0.95;0.95;;;29.90;99.90;;;;;;4846917;29;20426;-81
2021/07/18 09:37:43;;;;;;;0.93;0.93;;;29.90;99.90;;;;;;4862066;29;20427;-80
2021/07/18 09:40:11;;;;;;;1.05;1.05;;;30.20;99.90;;;;;;4849204;29;20446;-81
2021/07/18 09:45:31;;;;;;;1.10;1.00;;;30.50;99.90;;;;;;4894271;29;20482;-80
2021/07/18 09:48:01;;;;;;;1.40;1.30;;;30.50;99.90;;;;;;4864304;29;20407;-79
2021/07/18 09:50:36;;;;;;;1.15;1.05;;;30.50;99.90;;;;;;4882265;29;20578;-80
2021/07/18 09:53:15;;;;;;;1.17;1.08;;;30.70;99.90;;;;;;4875689;29;20821;-76
2021/07/18 09:56:03;;;;;;;0.80;0.80;;;31.00;99.90;;;;;;4846154;29;20438;-78
2021/07/18 09:58:29;;;;;;;1.45;0.93;;;30.80;99.90;;;;;;4846404;29;20407;-77
2021/07/18 10:00:55;;;;;;;0.70;0.70;;;31.10;99.90;;;;;;4875749;29;20512;-76
2021/07/18 10:03:24;;;;;;;0.93;0.93;;;31.10;99.90;;;;;;4867963;29;20402;-80
2021/07/18 10:06:08;;;;;;;0.77;0.77;;;31.20;99.90;;;;;;4847516;29;20986;-80
2021/07/18 10:08:34;;;;;;;1.00;1.00;;;31.40;99.90;;;;;;4884289;29;20437;-81
2021/07/18 10:11:00;;;;;;;1.08;0.98;;;31.60;99.90;;;;;;4855826;29;20435;-79
2021/07/18 10:13:26;;;;;;;1.02;0.98;;;31.80;99.90;;;;;;4844500;29;20395;-79
2021/07/18 10:15:52;;;;;;;1.10;1.00;;;31.90;99.90;;;;;;4876796;29;20885;-79
2021/07/18 10:18:18;;;;;;;1.10;1.00;;;32.10;99.90;;;;;;4863280;29;20455;-79
2021/07/18 10:20:44;;;;;;;1.00;0.90;;;32.40;99.90;;;;;;4863955;29;21407;-78
2021/07/18 10:23:10;;;;;;;0.70;0.70;;;32.60;99.90;;;;;;4857419;29;20463;-79
2021/07/18 10:25:36;;;;;;;0.80;0.80;;;32.80;99.90;;;;;;4846572;29;20418;-78
2021/07/18 10:28:06;;;;;;;0.90;0.90;;;32.90;99.90;;;;;;4861817;29;20414;-81
2021/07/18 10:30:34;;;;;;;0.80;0.80;;;33.40;99.90;;;;;;4837716;29;20419;-80
2021/07/18 10:33:00;;;;;;;0.83;0.83;;;33.90;97.90;;;;;;4837938;29;20420;-80
2021/07/18 10:35:29;;;;;;;2.03;1.08;;;34.20;98.00;;;;;;4884771;29;20427;-80
2021/07/18 10:37:55;;;;;;;0.80;0.80;;;33.60;95.40;;;;;;4839539;29;20426;-78
2021/07/18 10:40:24;;;;;;;0.80;0.80;;;33.30;94.20;;;;;;4845777;29;20791;-79
2021/07/18 10:43:06;;;;;;;0.85;0.85;;;33.40;91.90;;;;;;4838235;29;20549;-79
2021/07/18 10:45:59;;;;;;;1.15;1.00;;;33.70;93.10;;;;;;4848866;29;20422;-80
2021/07/18 10:48:41;;;;;;;1.25;1.10;;;33.70;92.70;;;;;;4839634;29;20415;-80
2021/07/18 10:51:34;;;;;;;0.85;0.85;;;33.70;94.70;;;;;;4872548;29;20415;-77
2021/07/18 10:54:20;;;;;;;0.90;0.90;;;33.60;94.50;;;;;;4853029;29;20410;-77
2021/07/18 10:56:50;;;;;;;0.80;0.80;;;34.20;94.10;;;;;;4879416;29;20442;-77
2021/07/18 10:59:34;;;;;;;0.90;0.90;;;34.70;92.50;;;;;;4888712;29;20411;-77
2021/07/18 11:02:16;;;;;;;1.13;1.02;;;34.80;90.10;;;;;;4887884;29;20415;-79
2021/07/18 11:04:55;;;;;;;1.25;0.98;;;34.40;89.20;;;;;;4875080;29;20411;-77
2021/07/18 11:07:20;;;;;;;1.02;1.02;;;34.00;86.70;;;;;;4878882;29;20434;-77
2021/07/18 11:09:56;;;;;;;1.05;0.90;;;33.90;87.10;;;;;;4872717;29;20407;-77
2021/07/18 11:12:34;;;;;;;1.05;0.95;;;34.10;92.00;;;;;;4866474;29;20419;-78
2021/07/18 11:15:15;;;;;;;0.90;0.90;;;33.70;79.20;;;;;;4873988;29;20494;-76
2021/07/18 11:17:59;;;;;;;1.58;0.90;;;34.20;87.50;;;;;;4888770;29;20502;-76
2021/07/18 11:20:47;;;;;;;0.80;0.80;;;34.00;86.90;;;;;;4890846;29;20422;-77
2021/07/18 11:23:15;;;;;;;1.90;1.00;;;34.20;90.90;;;;;;4883745;29;20418;-77
2021/07/18 11:25:40;;;;;;;1.17;1.07;;;34.60;86.50;;;;;;4842783;29;20478;-76
2021/07/18 11:28:32;;;;;;;1.30;1.00;;;34.30;85.20;;;;;;4874717;29;20862;-77
2021/07/18 11:31:10;;;;;;;1.45;1.00;;;34.00;90.90;;;;;;4888285;29;20411;-76
2021/07/18 11:33:36;;;;;;;0.95;0.95;;;34.40;85.20;;;;;;4885166;29;20537;-76
2021/07/18 11:36:02;;;;;;;0.93;0.93;;;34.50;82.80;;;;;;4855578;29;21289;-77
2021/07/18 11:38:28;;;;;;;1.10;1.00;;;34.50;86.00;;;;;;4875340;29;20411;-76
2021/07/18 11:40:54;;;;;;;0.95;0.95;;;34.10;85.70;;;;;;4885221;29;20415;-77
2021/07/18 11:43:22;;;;;;;0.98;0.98;;;34.70;80.50;;;;;;4865451;29;20426;-77
2021/07/18 11:45:48;;;;;;;0.80;0.80;;;34.30;81.50;;;;;;4857195;29;20479;-77
2021/07/18 11:48:15;;;;;;;2.53;1.23;;;34.60;82.90;;;;;;4873126;29;20413;-77
2021/07/18 11:50:41;;;;;;;0.93;0.93;;;34.40;77.50;;;;;;4828737;29;20411;-78
2021/07/18 11:53:07;;;;;;;1.08;1.08;;;34.00;77.80;;;;;;4871941;29;20410;-78
2021/07/18 11:55:34;;;;;;;1.20;1.10;;;34.30;80.80;;;;;;4827339;29;21511;-79
2021/07/18 11:58:00;;;;;;;1.03;0.93;;;34.60;83.40;;;;;;4873285;29;20410;-77
2021/07/18 12:00:26;;;;;;;1.10;1.00;;;34.70;83.40;;;;;;4854591;29;20978;-79
2021/07/18 12:02:52;;;;;;;1.13;1.10;;;35.20;82.00;;;;;;4872009;29;20418;-77
2021/07/18 12:05:22;;;;;;;0.70;0.70;;;35.20;81.90;;;;;;4855742;29;20419;-77
2021/07/18 12:07:47;;;;;;;1.00;0.80;;;35.10;75.30;;;;;;4873769;29;20458;-78
2021/07/18 12:10:20;;;;;;;0.90;0.90;;;35.20;78.40;;;;;;4851193;29;20431;-78
2021/07/18 12:12:48;;;;;;;2.30;1.25;;;35.60;76.60;;;;;;4841624;29;20955;-77
2021/07/18 12:15:14;;;;;;;1.20;1.10;;;35.80;77.50;;;;;;4870572;29;20446;-78
2021/07/18 12:17:40;;;;;;;0.80;0.80;;;35.70;72.50;;;;;;4841680;29;20411;-80
2021/07/18 12:20:06;;;;;;;3.30;0.90;;;36.00;74.70;;;;;;4842085;29;20411;-78
2021/07/18 12:22:32;;;;;;;0.95;0.93;;;36.30;70.80;;;;;;4888058;29;20449;-79
2021/07/18 12:24:58;;;;;;;2.28;1.35;;;36.40;71.20;;;;;;4842553;29;20442;-77
2021/07/18 12:27:26;;;;;;;0.90;0.90;;;36.20;72.80;;;;;;4889294;29;20514;-79
2021/07/18 12:29:53;;;;;;;1.20;0.90;;;35.80;70.40;;;;;;4843793;29;20466;-78
2021/07/18 12:32:20;;;;;;;1.35;0.93;;;35.70;68.20;;;;;;4839824;29;20441;-77
2021/07/18 12:34:48;;;;;;;1.02;1.00;;;36.00;69.20;;;;;;4840753;29;20470;-77
2021/07/18 12:37:21;;;;;;;0.82;0.82;;;36.30;70.60;;;;;;4884747;29;20419;-77
2021/07/18 12:39:59;;;;;;;2.08;1.13;;;36.70;72.80;;;;;;4873194;29;20421;-78
2021/07/18 12:42:35;;;;;;;1.50;1.17;;;37.20;70.90;;;;;;4826352;29;20418;-78
2021/07/18 12:45:03;;;;;;;1.60;1.02;;;37.00;65.60;;;;;;4887838;29;20445;-78
2021/07/18 12:47:35;;;;;;;2.10;1.10;;;37.20;69.50;;;;;;4843882;29;20976;-77
2021/07/18 12:50:11;;;;;;;0.98;0.95;;;37.50;68.80;;;;;;4892294;29;20422;-78